Harker Heights, Texas
Current Conditions -  °F | °C
As of 4:55 PM on Tuesday 21 Oct 2014 (Local Time) from KILE Reporting Station
Clear Clear  
Wind Chill: 79°   Ceiling: Unl
Heat Index: 79°   Visibility: 10mi
Dew Point: 48°   Wind: 10mph
Humidity: 34%   Direction: 100°E
Pressure: 30.01"   Gusts: NA
Location:  31.09°N, 97.66°W
Report Text: KILE 212155Z AUTO 10009KT 10SM CLR 26/09 A3001 RMK AO1
Loading
Personal Weather Stations






























Interactive Weather Map
Tropical Storm Tracking
New forecast layout! Learn more

10-Day Weather Forecast

Advertisements
Track Severe Weather on mobile